Aeroporto :
LOGIN :

Iscrizione | Disclaimer

   EN    FR    IT 

 










Sommario :    VFR   VFR Marginale   IFR   IFR Intensivo   IFR Molto Intensivo
Visibilità : 
Base nubi : 
>= 8 km
>= 3000ft
5 / 8 km
1000 / 3000 ft
1500m / 5 km
500 / 1000 ft
800 / 1500m
200 / 500 ft
< 800m
< 200 ft
Simboli :   Temporali  Nebbia  Neve Forte  Precipitazioni Forti  Vento > 20 kt
SIGMETs :   Varie  Temporali  Ghiacco  Turbolenza  Onda orograficha  Ceneri Vulcaniche






- Altitudine del aeroporto : 156 ft
- Codice IATA : MLN


GEML - Melilla

ULTIMO METAR :
  • 271600Z AUTO 07008KT 010V100 9999 FEW014 OVC021 21/18 Q1020

METARs OBSOLETI :
  • 271530Z AUTO 07009KT 020V110 9999 FEW013 OVC020 21/18 Q1020
  • 271500Z AUTO 06009KT 020V100 9999 SCT011 OVC019 21/18 Q1020
  • 271430Z AUTO 07010KT 030V100 9999 SCT012 OVC019 21/18 Q1020
  • 271400Z AUTO 07010KT 040V120 9999 FEW010 OVC017 21/18 Q1020
  • 271330Z AUTO 06008KT 010V100 9999 BKN011 OVC016 21/18 Q1020

TAF TAF GEML
Valido dal 27 a 15 ore il 28 a 15 ore UTC


271400Z 2715/2815 08009KT 9999 FEW015 BKN020 TX24/2813Z TN19/2805Z
PROB30
TEMPO 2715/2718 SCT010 BKN014
PROB40
TEMPO 2722/2813 SCT010 BKN014



MetMap, La meteo Aeronautica in un colpo d'occhio ! - Copyright ORBIFLY Dicembre 2007 - Disclaimer

ORBIFLY MET'MAP TEAM :

Programmazione e sviluppo : Alexandra Zaïnal
Concezione : Baudouin d'Aumeries
Aiuto per la programmazione : Marc-Olivier Méhu
Supporto tecnico e logistico : Manuel Goepfert
Aiuto per la traduzione : Arnaldo La Scala

Contatto : metmap@orbifly.com




FONTI E CREDITI :

   NOAA